sensor_id;sensor_type;location;lat;lon;timestamp;temperature;humidity
43651;DHT22;29247;50.944;5.382;2024-01-27T00:02:07;20.30;58.80
43651;DHT22;29247;50.944;5.382;2024-01-27T00:04:35;20.20;58.80
43651;DHT22;29247;50.944;5.382;2024-01-27T00:07:03;20.30;58.90
43651;DHT22;29247;50.944;5.382;2024-01-27T00:09:28;20.20;58.80
43651;DHT22;29247;50.944;5.382;2024-01-27T00:11:56;20.20;58.80
43651;DHT22;29247;50.944;5.382;2024-01-27T00:14:24;20.20;58.90
43651;DHT22;29247;50.944;5.382;2024-01-27T00:16:50;20.20;58.90
43651;DHT22;29247;50.944;5.382;2024-01-27T00:19:16;20.20;58.90
43651;DHT22;29247;50.944;5.382;2024-01-27T00:21:41;20.20;58.90
43651;DHT22;29247;50.944;5.382;2024-01-27T00:24:07;20.20;58.90
43651;DHT22;29247;50.944;5.382;2024-01-27T00:26:35;20.20;58.90
43651;DHT22;29247;50.944;5.382;2024-01-27T00:29:00;20.20;58.90
43651;DHT22;29247;50.944;5.382;2024-01-27T00:31:26;20.10;58.90
43651;DHT22;29247;50.944;5.382;2024-01-27T00:33:52;20.10;58.90
43651;DHT22;29247;50.944;5.382;2024-01-27T00:36:18;20.10;58.90
43651;DHT22;29247;50.944;5.382;2024-01-27T00:38:45;20.10;58.90
43651;DHT22;29247;50.944;5.382;2024-01-27T00:41:16;20.10;58.90
43651;DHT22;29247;50.944;5.382;2024-01-27T00:43:45;20.10;59.60
43651;DHT22;29247;50.944;5.382;2024-01-27T00:46:15;20.10;59.00
43651;DHT22;29247;50.944;5.382;2024-01-27T00:48:43;20.10;59.00
43651;DHT22;29247;50.944;5.382;2024-01-27T00:51:12;20.10;59.00
43651;DHT22;29247;50.944;5.382;2024-01-27T00:53:40;20.00;59.00
43651;DHT22;29247;50.944;5.382;2024-01-27T00:56:06;20.00;59.00
43651;DHT22;29247;50.944;5.382;2024-01-27T00:58:34;20.00;59.00
43651;DHT22;29247;50.944;5.382;2024-01-27T01:01:02;20.00;59.00
43651;DHT22;29247;50.944;5.382;2024-01-27T01:03:30;20.00;59.00
43651;DHT22;29247;50.944;5.382;2024-01-27T01:05:57;19.90;59.10
43651;DHT22;29247;50.944;5.382;2024-01-27T01:08:22;20.00;59.10
43651;DHT22;29247;50.944;5.382;2024-01-27T01:10:48;20.00;59.10
43651;DHT22;29247;50.944;5.382;2024-01-27T01:13:16;19.90;59.10
43651;DHT22;29247;50.944;5.382;2024-01-27T01:15:47;19.90;59.10
43651;DHT22;29247;50.944;5.382;2024-01-27T01:18:12;20.00;59.10
43651;DHT22;29247;50.944;5.382;2024-01-27T01:20:38;19.90;59.10
43651;DHT22;29247;50.944;5.382;2024-01-27T01:23:04;19.90;59.10
43651;DHT22;29247;50.944;5.382;2024-01-27T01:25:32;19.90;59.10
43651;DHT22;29247;50.944;5.382;2024-01-27T01:27:57;19.90;59.20
43651;DHT22;29247;50.944;5.382;2024-01-27T01:30:23;19.90;59.10
43651;DHT22;29247;50.944;5.382;2024-01-27T01:32:51;19.90;59.10
43651;DHT22;29247;50.944;5.382;2024-01-27T01:35:19;19.90;59.10
43651;DHT22;29247;50.944;5.382;2024-01-27T01:37:45;19.90;59.40
43651;DHT22;29247;50.944;5.382;2024-01-27T01:40:13;19.90;59.20
43651;DHT22;29247;50.944;5.382;2024-01-27T01:42:41;19.80;59.20
43651;DHT22;29247;50.944;5.382;2024-01-27T01:45:07;19.80;59.20
43651;DHT22;29247;50.944;5.382;2024-01-27T01:47:34;19.80;59.20
43651;DHT22;29247;50.944;5.382;2024-01-27T01:50:00;19.80;59.30
43651;DHT22;29247;50.944;5.382;2024-01-27T01:52:29;19.80;59.30
43651;DHT22;29247;50.944;5.382;2024-01-27T01:54:54;19.90;59.40
43651;DHT22;29247;50.944;5.382;2024-01-27T01:57:20;19.90;59.30
43651;DHT22;29247;50.944;5.382;2024-01-27T01:59:48;19.90;59.40
43651;DHT22;29247;50.944;5.382;2024-01-27T02:02:18;19.90;59.30
43651;DHT22;29247;50.944;5.382;2024-01-27T02:04:46;19.90;59.30
43651;DHT22;29247;50.944;5.382;2024-01-27T02:07:12;19.90;59.30
43651;DHT22;29247;50.944;5.382;2024-01-27T02:09:38;19.90;59.30
43651;DHT22;29247;50.944;5.382;2024-01-27T02:12:04;20.00;59.30
43651;DHT22;29247;50.944;5.382;2024-01-27T02:14:30;20.00;59.20
43651;DHT22;29247;50.944;5.382;2024-01-27T02:16:56;20.00;59.20
43651;DHT22;29247;50.944;5.382;2024-01-27T02:19:25;20.00;59.20
43651;DHT22;29247;50.944;5.382;2024-01-27T02:21:51;20.10;59.20
43651;DHT22;29247;50.944;5.382;2024-01-27T02:24:16;20.10;59.10
43651;DHT22;29247;50.944;5.382;2024-01-27T02:26:42;20.10;59.10
43651;DHT22;29247;50.944;5.382;2024-01-27T02:29:08;20.10;59.00
43651;DHT22;29247;50.944;5.382;2024-01-27T02:31:33;20.10;59.00
43651;DHT22;29247;50.944;5.382;2024-01-27T02:33:59;20.20;59.00
43651;DHT22;29247;50.944;5.382;2024-01-27T02:36:25;20.20;59.00
43651;DHT22;29247;50.944;5.382;2024-01-27T02:38:52;20.20;58.90
43651;DHT22;29247;50.944;5.382;2024-01-27T02:41:19;20.20;58.80
43651;DHT22;29247;50.944;5.382;2024-01-27T02:43:44;20.20;58.80
43651;DHT22;29247;50.944;5.382;2024-01-27T02:46:11;20.20;58.70
43651;DHT22;29247;50.944;5.382;2024-01-27T02:48:43;20.20;58.60
43651;DHT22;29247;50.944;5.382;2024-01-27T02:51:11;20.20;58.60
43651;DHT22;29247;50.944;5.382;2024-01-27T02:53:38;20.30;58.60
43651;DHT22;29247;50.944;5.382;2024-01-27T02:56:06;20.30;58.50
43651;DHT22;29247;50.944;5.382;2024-01-27T02:58:33;20.30;58.50
43651;DHT22;29247;50.944;5.382;2024-01-27T03:00:58;20.20;58.40
43651;DHT22;29247;50.944;5.382;2024-01-27T03:03:26;20.20;58.40
43651;DHT22;29247;50.944;5.382;2024-01-27T03:05:52;20.20;58.40
43651;DHT22;29247;50.944;5.382;2024-01-27T03:08:17;20.20;58.40
43651;DHT22;29247;50.944;5.382;2024-01-27T03:10:43;20.20;58.40
43651;DHT22;29247;50.944;5.382;2024-01-27T03:13:11;20.20;58.40
43651;DHT22;29247;50.944;5.382;2024-01-27T03:15:36;20.20;58.30
43651;DHT22;29247;50.944;5.382;2024-01-27T03:18:03;20.20;58.40
43651;DHT22;29247;50.944;5.382;2024-01-27T03:20:34;20.10;58.30
43651;DHT22;29247;50.944;5.382;2024-01-27T03:23:02;20.10;58.30
43651;DHT22;29247;50.944;5.382;2024-01-27T03:25:30;20.10;58.30
43651;DHT22;29247;50.944;5.382;2024-01-27T03:27:58;20.10;58.40
43651;DHT22;29247;50.944;5.382;2024-01-27T03:30:24;20.10;58.40
43651;DHT22;29247;50.944;5.382;2024-01-27T03:32:49;20.00;58.30
43651;DHT22;29247;50.944;5.382;2024-01-27T03:35:15;20.00;58.30
43651;DHT22;29247;50.944;5.382;2024-01-27T03:37:40;20.00;58.30
43651;DHT22;29247;50.944;5.382;2024-01-27T03:40:09;20.00;58.40
43651;DHT22;29247;50.944;5.382;2024-01-27T03:42:37;20.00;58.30
43651;DHT22;29247;50.944;5.382;2024-01-27T03:45:03;20.00;58.40
43651;DHT22;29247;50.944;5.382;2024-01-27T03:47:29;19.90;58.40
43651;DHT22;29247;50.944;5.382;2024-01-27T03:49:57;19.90;58.40
43651;DHT22;29247;50.944;5.382;2024-01-27T03:52:23;19.90;58.40
43651;DHT22;29247;50.944;5.382;2024-01-27T03:54:51;19.90;58.40
43651;DHT22;29247;50.944;5.382;2024-01-27T03:57:17;19.90;58.40
43651;DHT22;29247;50.944;5.382;2024-01-27T03:59:42;19.90;58.40
43651;DHT22;29247;50.944;5.382;2024-01-27T04:02:13;19.90;58.40
43651;DHT22;29247;50.944;5.382;2024-01-27T04:04:43;19.90;58.40
43651;DHT22;29247;50.944;5.382;2024-01-27T04:07:08;19.90;58.40
43651;DHT22;29247;50.944;5.382;2024-01-27T04:09:34;19.80;58.40
43651;DHT22;29247;50.944;5.382;2024-01-27T04:12:02;19.80;58.40
43651;DHT22;29247;50.944;5.382;2024-01-27T04:14:28;19.80;58.50
43651;DHT22;29247;50.944;5.382;2024-01-27T04:16:56;19.80;58.50
43651;DHT22;29247;50.944;5.382;2024-01-27T04:19:21;19.80;58.50
43651;DHT22;29247;50.944;5.382;2024-01-27T04:21:47;19.80;58.50
43651;DHT22;29247;50.944;5.382;2024-01-27T04:24:12;19.80;58.50
43651;DHT22;29247;50.944;5.382;2024-01-27T04:26:40;19.80;58.50
43651;DHT22;29247;50.944;5.382;2024-01-27T04:29:06;19.70;58.50
43651;DHT22;29247;50.944;5.382;2024-01-27T04:31:31;19.70;58.40
43651;DHT22;29247;50.944;5.382;2024-01-27T04:33:57;19.70;58.50
43651;DHT22;29247;50.944;5.382;2024-01-27T04:36:29;19.70;58.40
43651;DHT22;29247;50.944;5.382;2024-01-27T04:38:56;19.70;58.50
43651;DHT22;29247;50.944;5.382;2024-01-27T04:41:21;19.70;58.50
43651;DHT22;29247;50.944;5.382;2024-01-27T04:43:49;19.70;58.50
43651;DHT22;29247;50.944;5.382;2024-01-27T04:46:15;19.70;58.50
43651;DHT22;29247;50.944;5.382;2024-01-27T04:48:41;19.70;58.50
43651;DHT22;29247;50.944;5.382;2024-01-27T04:51:11;19.60;58.50
43651;DHT22;29247;50.944;5.382;2024-01-27T04:53:37;19.60;58.50
43651;DHT22;29247;50.944;5.382;2024-01-27T04:56:03;19.60;58.50
43651;DHT22;29247;50.944;5.382;2024-01-27T04:58:33;19.60;58.50
43651;DHT22;29247;50.944;5.382;2024-01-27T05:00:59;19.60;58.50
43651;DHT22;29247;50.944;5.382;2024-01-27T05:03:25;19.60;58.60
43651;DHT22;29247;50.944;5.382;2024-01-27T05:05:51;19.60;58.60
43651;DHT22;29247;50.944;5.382;2024-01-27T05:08:18;19.60;58.60
43651;DHT22;29247;50.944;5.382;2024-01-27T05:10:44;19.50;58.60
43651;DHT22;29247;50.944;5.382;2024-01-27T05:13:13;19.60;58.60
43651;DHT22;29247;50.944;5.382;2024-01-27T05:15:38;19.50;58.60
43651;DHT22;29247;50.944;5.382;2024-01-27T05:18:04;19.60;58.70
43651;DHT22;29247;50.944;5.382;2024-01-27T05:20:32;19.50;58.60
43651;DHT22;29247;50.944;5.382;2024-01-27T05:23:00;19.60;58.70
43651;DHT22;29247;50.944;5.382;2024-01-27T05:25:28;19.60;58.70
43651;DHT22;29247;50.944;5.382;2024-01-27T05:27:54;19.60;58.70
43651;DHT22;29247;50.944;5.382;2024-01-27T05:30:19;19.60;58.80
43651;DHT22;29247;50.944;5.382;2024-01-27T05:32:45;19.60;58.80
43651;DHT22;29247;50.944;5.382;2024-01-27T05:35:11;19.60;58.70
43651;DHT22;29247;50.944;5.382;2024-01-27T05:37:36;19.70;58.80
43651;DHT22;29247;50.944;5.382;2024-01-27T05:40:05;19.70;58.80
43651;DHT22;29247;50.944;5.382;2024-01-27T05:42:33;19.70;58.70
43651;DHT22;29247;50.944;5.382;2024-01-27T05:44:59;19.80;58.80
43651;DHT22;29247;50.944;5.382;2024-01-27T05:47:25;19.80;58.80
43651;DHT22;29247;50.944;5.382;2024-01-27T05:49:51;19.80;58.70
43651;DHT22;29247;50.944;5.382;2024-01-27T05:52:17;19.90;58.70
43651;DHT22;29247;50.944;5.382;2024-01-27T05:54:42;19.90;58.60
43651;DHT22;29247;50.944;5.382;2024-01-27T05:57:08;19.90;58.60
43651;DHT22;29247;50.944;5.382;2024-01-27T05:59:36;20.00;58.40
43651;DHT22;29247;50.944;5.382;2024-01-27T06:02:01;20.00;59.00
43651;DHT22;29247;50.944;5.382;2024-01-27T06:04:27;20.00;58.30
43651;DHT22;29247;50.944;5.382;2024-01-27T06:06:56;20.10;58.30
43651;DHT22;29247;50.944;5.382;2024-01-27T06:09:22;20.10;58.30
43651;DHT22;29247;50.944;5.382;2024-01-27T06:11:48;20.10;58.30
43651;DHT22;29247;50.944;5.382;2024-01-27T06:14:13;20.10;58.20
43651;DHT22;29247;50.944;5.382;2024-01-27T06:16:39;20.20;58.20
43651;DHT22;29247;50.944;5.382;2024-01-27T06:19:07;20.20;58.20
43651;DHT22;29247;50.944;5.382;2024-01-27T06:21:32;20.20;58.40
43651;DHT22;29247;50.944;5.382;2024-01-27T06:23:58;20.30;58.70
43651;DHT22;29247;50.944;5.382;2024-01-27T06:26:26;20.30;58.80
43651;DHT22;29247;50.944;5.382;2024-01-27T06:28:54;20.30;59.00
43651;DHT22;29247;50.944;5.382;2024-01-27T06:31:22;20.40;59.20
43651;DHT22;29247;50.944;5.382;2024-01-27T06:33:47;20.40;59.10
43651;DHT22;29247;50.944;5.382;2024-01-27T06:36:16;20.40;59.00
43651;DHT22;29247;50.944;5.382;2024-01-27T06:38:44;20.40;58.80
43651;DHT22;29247;50.944;5.382;2024-01-27T06:41:10;20.40;58.70
43651;DHT22;29247;50.944;5.382;2024-01-27T06:43:35;20.50;58.70
43651;DHT22;29247;50.944;5.382;2024-01-27T06:46:01;20.50;58.70
43651;DHT22;29247;50.944;5.382;2024-01-27T06:48:31;20.50;58.60
43651;DHT22;29247;50.944;5.382;2024-01-27T06:51:00;20.50;58.50
43651;DHT22;29247;50.944;5.382;2024-01-27T06:53:25;20.60;58.40
43651;DHT22;29247;50.944;5.382;2024-01-27T06:55:53;20.60;58.30
43651;DHT22;29247;50.944;5.382;2024-01-27T06:58:19;20.60;58.30
43651;DHT22;29247;50.944;5.382;2024-01-27T07:00:47;20.60;58.20
43651;DHT22;29247;50.944;5.382;2024-01-27T07:03:13;20.70;58.10
43651;DHT22;29247;50.944;5.382;2024-01-27T07:05:40;20.70;58.10
43651;DHT22;29247;50.944;5.382;2024-01-27T07:08:07;20.70;58.00
43651;DHT22;29247;50.944;5.382;2024-01-27T07:10:34;20.70;58.00
43651;DHT22;29247;50.944;5.382;2024-01-27T07:12:59;20.70;58.00
43651;DHT22;29247;50.944;5.382;2024-01-27T07:15:27;20.80;58.00
43651;DHT22;29247;50.944;5.382;2024-01-27T07:17:56;20.80;57.90
43651;DHT22;29247;50.944;5.382;2024-01-27T07:20:25;20.80;57.80
43651;DHT22;29247;50.944;5.382;2024-01-27T07:22:50;20.80;57.70
43651;DHT22;29247;50.944;5.382;2024-01-27T07:25:18;20.80;57.70
43651;DHT22;29247;50.944;5.382;2024-01-27T07:27:48;20.90;57.60
43651;DHT22;29247;50.944;5.382;2024-01-27T07:30:16;20.90;57.60
43651;DHT22;29247;50.944;5.382;2024-01-27T07:32:42;20.90;57.50
43651;DHT22;29247;50.944;5.382;2024-01-27T07:35:09;20.90;57.40
43651;DHT22;29247;50.944;5.382;2024-01-27T07:37:35;20.90;57.30
43651;DHT22;29247;50.944;5.382;2024-01-27T07:40:00;20.90;57.20
43651;DHT22;29247;50.944;5.382;2024-01-27T07:42:28;20.90;57.20
43651;DHT22;29247;50.944;5.382;2024-01-27T07:44:56;21.00;57.20
43651;DHT22;29247;50.944;5.382;2024-01-27T07:47:24;21.00;57.00
43651;DHT22;29247;50.944;5.382;2024-01-27T07:49:49;21.00;57.00
43651;DHT22;29247;50.944;5.382;2024-01-27T07:52:16;21.00;56.90
43651;DHT22;29247;50.944;5.382;2024-01-27T07:54:42;21.00;56.80
43651;DHT22;29247;50.944;5.382;2024-01-27T07:57:07;21.10;56.80
43651;DHT22;29247;50.944;5.382;2024-01-27T07:59:33;21.10;56.70
43651;DHT22;29247;50.944;5.382;2024-01-27T08:01:59;21.10;56.60
43651;DHT22;29247;50.944;5.382;2024-01-27T08:04:25;21.10;56.50
43651;DHT22;29247;50.944;5.382;2024-01-27T08:06:52;21.10;56.40
43651;DHT22;29247;50.944;5.382;2024-01-27T08:09:18;21.20;56.50
43651;DHT22;29247;50.944;5.382;2024-01-27T08:11:45;21.20;56.50
43651;DHT22;29247;50.944;5.382;2024-01-27T08:14:13;21.20;56.70
43651;DHT22;29247;50.944;5.382;2024-01-27T08:16:38;21.30;56.80
43651;DHT22;29247;50.944;5.382;2024-01-27T08:19:04;21.40;56.60
43651;DHT22;29247;50.944;5.382;2024-01-27T08:21:32;21.50;56.40
43651;DHT22;29247;50.944;5.382;2024-01-27T08:24:00;21.50;56.10
43651;DHT22;29247;50.944;5.382;2024-01-27T08:26:26;21.50;55.90
43651;DHT22;29247;50.944;5.382;2024-01-27T08:28:52;21.60;55.60
43651;DHT22;29247;50.944;5.382;2024-01-27T08:31:21;21.70;55.50
43651;DHT22;29247;50.944;5.382;2024-01-27T08:33:47;21.70;55.30
43651;DHT22;29247;50.944;5.382;2024-01-27T08:36:16;21.80;55.20
43651;DHT22;29247;50.944;5.382;2024-01-27T08:38:44;21.80;54.90
43651;DHT22;29247;50.944;5.382;2024-01-27T08:41:10;21.90;54.70
43651;DHT22;29247;50.944;5.382;2024-01-27T08:43:35;21.90;54.30
43651;DHT22;29247;50.944;5.382;2024-01-27T08:46:01;22.00;54.50
43651;DHT22;29247;50.944;5.382;2024-01-27T08:48:27;22.00;54.80
43651;DHT22;29247;50.944;5.382;2024-01-27T08:50:54;22.00;55.20
43651;DHT22;29247;50.944;5.382;2024-01-27T08:53:23;22.00;55.60
43651;DHT22;29247;50.944;5.382;2024-01-27T08:55:48;22.00;55.90
43651;DHT22;29247;50.944;5.382;2024-01-27T08:58:14;22.00;56.10
43651;DHT22;29247;50.944;5.382;2024-01-27T09:00:39;22.00;55.50
43651;DHT22;29247;50.944;5.382;2024-01-27T09:03:08;22.00;55.40
43651;DHT22;29247;50.944;5.382;2024-01-27T09:05:33;22.00;55.40
43651;DHT22;29247;50.944;5.382;2024-01-27T09:08:01;22.00;55.40
43651;DHT22;29247;50.944;5.382;2024-01-27T09:10:27;22.00;55.40
43651;DHT22;29247;50.944;5.382;2024-01-27T09:12:54;22.00;55.30
43651;DHT22;29247;50.944;5.382;2024-01-27T09:15:22;22.00;55.20
43651;DHT22;29247;50.944;5.382;2024-01-27T09:17:48;22.00;55.10
43651;DHT22;29247;50.944;5.382;2024-01-27T09:20:16;22.10;55.00
43651;DHT22;29247;50.944;5.382;2024-01-27T09:22:42;22.00;54.80
43651;DHT22;29247;50.944;5.382;2024-01-27T09:25:10;22.00;54.60
43651;DHT22;29247;50.944;5.382;2024-01-27T09:27:38;22.00;54.60
43651;DHT22;29247;50.944;5.382;2024-01-27T09:30:07;22.00;54.60
43651;DHT22;29247;50.944;5.382;2024-01-27T09:32:33;22.00;54.60
43651;DHT22;29247;50.944;5.382;2024-01-27T09:34:59;22.00;54.50
43651;DHT22;29247;50.944;5.382;2024-01-27T09:37:24;22.10;54.50
43651;DHT22;29247;50.944;5.382;2024-01-27T09:39:52;22.00;54.40
43651;DHT22;29247;50.944;5.382;2024-01-27T09:42:20;22.10;54.40
43651;DHT22;29247;50.944;5.382;2024-01-27T09:44:48;22.00;54.20
43651;DHT22;29247;50.944;5.382;2024-01-27T09:47:16;22.00;54.20
43651;DHT22;29247;50.944;5.382;2024-01-27T09:49:42;22.00;54.00
43651;DHT22;29247;50.944;5.382;2024-01-27T09:52:09;22.00;53.80
43651;DHT22;29247;50.944;5.382;2024-01-27T09:54:35;22.00;53.70
43651;DHT22;29247;50.944;5.382;2024-01-27T09:57:04;22.00;53.70
43651;DHT22;29247;50.944;5.382;2024-01-27T09:59:32;22.00;53.60
43651;DHT22;29247;50.944;5.382;2024-01-27T10:01:59;22.00;53.70
43651;DHT22;29247;50.944;5.382;2024-01-27T10:04:27;22.00;53.80
43651;DHT22;29247;50.944;5.382;2024-01-27T10:06:53;22.00;53.80
43651;DHT22;29247;50.944;5.382;2024-01-27T10:09:21;22.00;53.80
43651;DHT22;29247;50.944;5.382;2024-01-27T10:11:47;22.10;53.90
43651;DHT22;29247;50.944;5.382;2024-01-27T10:14:13;22.10;53.80
43651;DHT22;29247;50.944;5.382;2024-01-27T10:16:45;22.10;53.80
43651;DHT22;29247;50.944;5.382;2024-01-27T10:19:18;22.10;53.70
43651;DHT22;29247;50.944;5.382;2024-01-27T10:21:48;22.10;53.70
43651;DHT22;29247;50.944;5.382;2024-01-27T10:24:14;22.10;53.70
43651;DHT22;29247;50.944;5.382;2024-01-27T10:26:40;22.10;53.80
43651;DHT22;29247;50.944;5.382;2024-01-27T10:31:45;22.10;53.90
43651;DHT22;29247;50.944;5.382;2024-01-27T10:34:11;22.10;53.90
43651;DHT22;29247;50.944;5.382;2024-01-27T10:36:46;22.10;53.90
43651;DHT22;29247;50.944;5.382;2024-01-27T10:39:18;22.10;53.90
43651;DHT22;29247;50.944;5.382;2024-01-27T10:41:46;22.10;53.90
43651;DHT22;29247;50.944;5.382;2024-01-27T10:44:19;22.10;53.90
43651;DHT22;29247;50.944;5.382;2024-01-27T10:46:46;22.10;53.90
43651;DHT22;29247;50.944;5.382;2024-01-27T10:49:13;22.10;53.90
43651;DHT22;29247;50.944;5.382;2024-01-27T10:51:55;22.10;53.80
43651;DHT22;29247;50.944;5.382;2024-01-27T10:54:27;22.10;53.80
43651;DHT22;29247;50.944;5.382;2024-01-27T10:56:57;22.20;53.90
43651;DHT22;29247;50.944;5.382;2024-01-27T10:59:26;22.20;53.90
43651;DHT22;29247;50.944;5.382;2024-01-27T11:01:54;22.30;54.50
43651;DHT22;29247;50.944;5.382;2024-01-27T11:04:23;22.20;53.80
43651;DHT22;29247;50.944;5.382;2024-01-27T11:06:52;22.20;53.70
43651;DHT22;29247;50.944;5.382;2024-01-27T11:09:19;22.20;53.70
43651;DHT22;29247;50.944;5.382;2024-01-27T11:11:45;22.20;53.70
43651;DHT22;29247;50.944;5.382;2024-01-27T11:14:11;22.20;53.70
43651;DHT22;29247;50.944;5.382;2024-01-27T11:16:39;22.30;53.70
43651;DHT22;29247;50.944;5.382;2024-01-27T11:19:11;22.20;53.60
43651;DHT22;29247;50.944;5.382;2024-01-27T11:21:37;22.20;53.60
43651;DHT22;29247;50.944;5.382;2024-01-27T11:24:16;22.20;53.60
43651;DHT22;29247;50.944;5.382;2024-01-27T11:26:42;22.30;53.60
43651;DHT22;29247;50.944;5.382;2024-01-27T11:29:10;22.30;53.60
43651;DHT22;29247;50.944;5.382;2024-01-27T11:31:45;22.30;53.60
43651;DHT22;29247;50.944;5.382;2024-01-27T11:34:13;22.30;53.60
43651;DHT22;29247;50.944;5.382;2024-01-27T11:36:44;22.20;53.50
43651;DHT22;29247;50.944;5.382;2024-01-27T11:39:27;22.30;53.60
43651;DHT22;29247;50.944;5.382;2024-01-27T11:41:53;22.20;53.50
43651;DHT22;29247;50.944;5.382;2024-01-27T11:44:19;22.20;53.50
43651;DHT22;29247;50.944;5.382;2024-01-27T11:46:45;22.20;53.60
43651;DHT22;29247;50.944;5.382;2024-01-27T11:49:15;22.20;53.70
43651;DHT22;29247;50.944;5.382;2024-01-27T11:51:44;22.20;53.70
43651;DHT22;29247;50.944;5.382;2024-01-27T11:54:10;22.20;53.80
43651;DHT22;29247;50.944;5.382;2024-01-27T11:56:37;22.20;53.80
43651;DHT22;29247;50.944;5.382;2024-01-27T11:59:03;22.20;53.80
43651;DHT22;29247;50.944;5.382;2024-01-27T12:01:28;22.20;53.80
43651;DHT22;29247;50.944;5.382;2024-01-27T12:03:54;22.20;53.80
43651;DHT22;29247;50.944;5.382;2024-01-27T12:06:20;22.20;53.80
43651;DHT22;29247;50.944;5.382;2024-01-27T12:08:46;22.10;53.80
43651;DHT22;29247;50.944;5.382;2024-01-27T12:11:15;22.10;53.80
43651;DHT22;29247;50.944;5.382;2024-01-27T12:13:44;22.10;53.90
43651;DHT22;29247;50.944;5.382;2024-01-27T12:16:12;22.10;53.80
43651;DHT22;29247;50.944;5.382;2024-01-27T12:18:38;22.10;53.80
43651;DHT22;29247;50.944;5.382;2024-01-27T12:21:04;22.10;53.80
43651;DHT22;29247;50.944;5.382;2024-01-27T12:23:30;22.10;53.90
43651;DHT22;29247;50.944;5.382;2024-01-27T12:25:56;22.10;53.90
43651;DHT22;29247;50.944;5.382;2024-01-27T12:28:23;22.00;53.80
43651;DHT22;29247;50.944;5.382;2024-01-27T12:30:52;22.00;53.90
43651;DHT22;29247;50.944;5.382;2024-01-27T12:33:18;22.00;53.80
43651;DHT22;29247;50.944;5.382;2024-01-27T12:35:48;22.00;53.80
43651;DHT22;29247;50.944;5.382;2024-01-27T12:38:19;22.00;53.80
43651;DHT22;29247;50.944;5.382;2024-01-27T12:40:45;21.90;53.90
43651;DHT22;29247;50.944;5.382;2024-01-27T12:43:11;21.90;53.90
43651;DHT22;29247;50.944;5.382;2024-01-27T12:45:36;21.90;53.90
43651;DHT22;29247;50.944;5.382;2024-01-27T12:48:03;21.90;53.90
43651;DHT22;29247;50.944;5.382;2024-01-27T12:50:31;21.90;53.90
43651;DHT22;29247;50.944;5.382;2024-01-27T12:52:59;21.90;53.90
43651;DHT22;29247;50.944;5.382;2024-01-27T12:55:25;21.90;54.00
43651;DHT22;29247;50.944;5.382;2024-01-27T12:57:52;21.90;54.00
43651;DHT22;29247;50.944;5.382;2024-01-27T13:00:23;21.90;54.00
43651;DHT22;29247;50.944;5.382;2024-01-27T13:02:48;21.90;54.00
43651;DHT22;29247;50.944;5.382;2024-01-27T13:05:16;21.90;54.00
43651;DHT22;29247;50.944;5.382;2024-01-27T13:07:42;22.00;54.10
43651;DHT22;29247;50.944;5.382;2024-01-27T13:10:10;22.00;54.10
43651;DHT22;29247;50.944;5.382;2024-01-27T13:12:38;22.00;54.10
43651;DHT22;29247;50.944;5.382;2024-01-27T13:15:05;22.00;54.10
43651;DHT22;29247;50.944;5.382;2024-01-27T13:17:32;22.00;54.00
43651;DHT22;29247;50.944;5.382;2024-01-27T13:19:58;22.00;54.00
43651;DHT22;29247;50.944;5.382;2024-01-27T13:22:23;22.10;53.90
43651;DHT22;29247;50.944;5.382;2024-01-27T13:24:50;22.10;53.90
43651;DHT22;29247;50.944;5.382;2024-01-27T13:27:16;22.10;53.90
43651;DHT22;29247;50.944;5.382;2024-01-27T13:29:42;22.10;53.80
43651;DHT22;29247;50.944;5.382;2024-01-27T13:32:07;22.20;53.80
43651;DHT22;29247;50.944;5.382;2024-01-27T13:34:33;22.20;53.70
43651;DHT22;29247;50.944;5.382;2024-01-27T13:37:01;22.20;53.70
43651;DHT22;29247;50.944;5.382;2024-01-27T13:39:30;22.20;53.60
43651;DHT22;29247;50.944;5.382;2024-01-27T13:41:55;22.30;53.60
43651;DHT22;29247;50.944;5.382;2024-01-27T13:44:21;22.30;53.60
43651;DHT22;29247;50.944;5.382;2024-01-27T13:46:49;22.30;53.60
43651;DHT22;29247;50.944;5.382;2024-01-27T13:49:17;22.30;53.50
43651;DHT22;29247;50.944;5.382;2024-01-27T13:51:44;22.40;53.50
43651;DHT22;29247;50.944;5.382;2024-01-27T13:54:12;22.30;53.40
43651;DHT22;29247;50.944;5.382;2024-01-27T13:56:41;22.40;53.40
43651;DHT22;29247;50.944;5.382;2024-01-27T13:59:07;22.40;53.40
43651;DHT22;29247;50.944;5.382;2024-01-27T14:01:34;22.40;53.30
43651;DHT22;29247;50.944;5.382;2024-01-27T14:04:00;22.50;53.30
43651;DHT22;29247;50.944;5.382;2024-01-27T14:06:28;22.50;53.20
43651;DHT22;29247;50.944;5.382;2024-01-27T14:08:54;22.50;53.20
43651;DHT22;29247;50.944;5.382;2024-01-27T14:11:22;22.50;53.10
43651;DHT22;29247;50.944;5.382;2024-01-27T14:13:48;22.60;53.10
43651;DHT22;29247;50.944;5.382;2024-01-27T14:16:15;22.60;53.10
43651;DHT22;29247;50.944;5.382;2024-01-27T14:18:41;22.60;53.00
43651;DHT22;29247;50.944;5.382;2024-01-27T14:21:10;22.60;53.00
43651;DHT22;29247;50.944;5.382;2024-01-27T14:23:36;22.60;53.00
43651;DHT22;29247;50.944;5.382;2024-01-27T14:26:05;22.60;52.90
43651;DHT22;29247;50.944;5.382;2024-01-27T14:28:33;22.60;52.90
43651;DHT22;29247;50.944;5.382;2024-01-27T14:31:00;22.60;52.90
43651;DHT22;29247;50.944;5.382;2024-01-27T14:33:26;22.70;52.90
43651;DHT22;29247;50.944;5.382;2024-01-27T14:35:54;22.70;52.90
43651;DHT22;29247;50.944;5.382;2024-01-27T14:38:20;22.70;52.80
43651;DHT22;29247;50.944;5.382;2024-01-27T14:40:47;22.70;52.80
43651;DHT22;29247;50.944;5.382;2024-01-27T14:43:16;22.70;52.80
43651;DHT22;29247;50.944;5.382;2024-01-27T14:45:44;22.70;52.70
43651;DHT22;29247;50.944;5.382;2024-01-27T14:48:12;22.70;52.70
43651;DHT22;29247;50.944;5.382;2024-01-27T14:50:41;22.70;52.60
43651;DHT22;29247;50.944;5.382;2024-01-27T14:53:06;22.70;52.60
43651;DHT22;29247;50.944;5.382;2024-01-27T14:55:32;22.70;52.60
43651;DHT22;29247;50.944;5.382;2024-01-27T14:57:58;22.70;52.50
43651;DHT22;29247;50.944;5.382;2024-01-27T15:00:26;22.70;52.50
43651;DHT22;29247;50.944;5.382;2024-01-27T15:02:52;22.70;52.50
43651;DHT22;29247;50.944;5.382;2024-01-27T15:05:22;22.70;52.50
43651;DHT22;29247;50.944;5.382;2024-01-27T15:07:48;22.70;52.50
43651;DHT22;29247;50.944;5.382;2024-01-27T15:10:14;22.70;52.40
43651;DHT22;29247;50.944;5.382;2024-01-27T15:12:41;22.70;52.50
43651;DHT22;29247;50.944;5.382;2024-01-27T15:15:09;22.70;52.50
43651;DHT22;29247;50.944;5.382;2024-01-27T15:17:35;22.70;52.50
43651;DHT22;29247;50.944;5.382;2024-01-27T15:20:01;22.60;52.50
43651;DHT22;29247;50.944;5.382;2024-01-27T15:22:26;22.60;52.50
43651;DHT22;29247;50.944;5.382;2024-01-27T15:24:52;22.60;52.50
43651;DHT22;29247;50.944;5.382;2024-01-27T15:27:18;22.60;52.50
43651;DHT22;29247;50.944;5.382;2024-01-27T15:29:44;22.50;52.50
43651;DHT22;29247;50.944;5.382;2024-01-27T15:32:12;22.60;52.50